createdAt,value
2023-04-26T00:00:10.458Z,101
2023-04-26T00:01:10.921Z,101
2023-04-26T00:02:11.261Z,101
2023-04-26T00:05:11.304Z,101
2023-04-26T00:06:10.515Z,101
2023-04-26T00:08:10.464Z,103
2023-04-26T00:09:09.251Z,103
2023-04-26T00:10:11.291Z,103
2023-04-26T00:11:10.578Z,103
2023-04-26T00:12:10.845Z,103
2023-04-26T00:13:11.039Z,103
2023-04-26T00:14:10.444Z,103
2023-04-26T00:15:10.885Z,103
2023-04-26T00:16:11.203Z,103
2023-04-26T00:18:10.767Z,103
2023-04-26T00:19:10.781Z,103
2023-04-26T00:20:11.261Z,103
2023-04-26T00:21:11.015Z,103
2023-04-26T00:22:09.950Z,103
2023-04-26T00:23:10.347Z,103
2023-04-26T00:24:11.052Z,103
2023-04-26T00:29:10.421Z,103
2023-04-26T00:30:10.505Z,103
2023-04-26T00:31:10.677Z,103
2023-04-26T00:34:10.872Z,103
2023-04-26T00:35:09.845Z,103
2023-04-26T00:36:10.362Z,103
2023-04-26T00:37:10.713Z,103
2023-04-26T00:38:09.729Z,103
2023-04-26T00:39:10.673Z,103
2023-04-26T00:40:11.334Z,103
2023-04-26T00:41:10.370Z,103
2023-04-26T00:42:10.497Z,103
2023-04-26T00:43:10.767Z,103
2023-04-26T00:44:10.920Z,103
2023-04-26T00:47:11.312Z,103
2023-04-26T00:49:10.556Z,103
2023-04-26T00:50:11.085Z,103
2023-04-26T00:51:11.331Z,103
2023-04-26T00:52:10.502Z,103
2023-04-26T00:53:10.750Z,103
2023-04-26T00:54:10.900Z,103
2023-04-26T00:55:10.346Z,103
2023-04-26T00:56:10.941Z,103
2023-04-26T00:57:10.728Z,103
2023-04-26T00:58:11.180Z,103
2023-04-26T01:01:10.693Z,103
2023-04-26T01:02:11.138Z,103
2023-04-26T01:03:11.746Z,103
2023-04-26T01:05:10.638Z,103
2023-04-26T01:06:11.353Z,103
2023-04-26T01:07:10.191Z,106
2023-04-26T01:08:11.241Z,106
2023-04-26T01:09:10.203Z,106
2023-04-26T01:10:10.677Z,106
2023-04-26T01:11:10.954Z,106
2023-04-26T01:12:10.402Z,106
2023-04-26T01:13:10.273Z,106
2023-04-26T01:14:10.881Z,106
2023-04-26T01:15:11.142Z,106
2023-04-26T01:16:10.666Z,106
2023-04-26T01:17:11.278Z,106
2023-04-26T01:18:11.390Z,106
2023-04-26T01:21:10.638Z,106
2023-04-26T01:22:10.997Z,106
2023-04-26T01:23:10.267Z,106
2023-04-26T01:24:10.606Z,106
2023-04-26T01:25:11.084Z,106
2023-04-26T01:26:11.134Z,106
2023-04-26T01:27:11.081Z,106
2023-04-26T01:28:10.715Z,106
2023-04-26T01:29:10.865Z,106
2023-04-26T01:30:10.389Z,106
2023-04-26T01:31:10.830Z,106
2023-04-26T01:32:10.860Z,106
2023-04-26T01:33:10.535Z,106
2023-04-26T01:34:10.811Z,106
2023-04-26T01:35:11.345Z,106
2023-04-26T01:36:10.142Z,106
2023-04-26T01:37:09.599Z,106
2023-04-26T01:38:11.040Z,106
2023-04-26T01:39:10.907Z,106
2023-04-26T01:40:11.066Z,106
2023-04-26T01:44:10.766Z,106
2023-04-26T01:45:11.090Z,106
2023-04-26T01:46:10.665Z,106
2023-04-26T01:47:10.391Z,106
2023-04-26T01:48:11.070Z,106
2023-04-26T01:51:10.493Z,106
2023-04-26T01:52:10.601Z,106
2023-04-26T01:53:11.060Z,106
2023-04-26T01:54:11.251Z,106
2023-04-26T01:55:10.566Z,106
2023-04-26T01:56:10.877Z,106
2023-04-26T01:57:11.378Z,106
2023-04-26T01:58:10.249Z,106
2023-04-26T01:59:10.850Z,106
2023-04-26T02:00:10.941Z,106
2023-04-26T02:01:11.080Z,106
2023-04-26T02:02:11.680Z,106
2023-04-26T02:03:10.436Z,106
2023-04-26T02:04:11.256Z,106
2023-04-26T02:05:10.812Z,106
2023-04-26T02:06:09.868Z,106
2023-04-26T02:07:11.108Z,104
2023-04-26T02:11:10.276Z,104
2023-04-26T02:12:10.479Z,104
2023-04-26T02:13:10.712Z,104
2023-04-26T02:14:10.835Z,104
2023-04-26T02:15:11.347Z,104
2023-04-26T02:16:11.146Z,104
2023-04-26T02:17:10.416Z,104
2023-04-26T02:18:11.008Z,104
2023-04-26T02:19:11.033Z,104
2023-04-26T02:20:11.261Z,104
2023-04-26T02:21:10.385Z,104
2023-04-26T02:22:10.793Z,104
2023-04-26T02:23:11.252Z,104
2023-04-26T02:24:10.415Z,104
2023-04-26T02:25:10.629Z,104
2023-04-26T02:29:10.535Z,104
2023-04-26T02:30:09.581Z,104
2023-04-26T02:31:10.890Z,104
2023-04-26T02:32:10.900Z,104
2023-04-26T02:33:11.516Z,104
2023-04-26T02:34:10.706Z,104
2023-04-26T02:35:10.726Z,104
2023-04-26T02:36:10.687Z,104
2023-04-26T02:37:10.347Z,104
2023-04-26T02:38:10.540Z,104
2023-04-26T02:39:10.640Z,104
2023-04-26T02:40:10.846Z,104
2023-04-26T02:41:11.165Z,104
2023-04-26T02:42:11.042Z,104
2023-04-26T02:47:10.955Z,104
2023-04-26T02:48:11.196Z,104
2023-04-26T02:49:11.083Z,104
2023-04-26T02:51:10.159Z,104
2023-04-26T02:52:10.636Z,104
2023-04-26T02:53:10.779Z,104
2023-04-26T02:54:13.497Z,104
2023-04-26T02:55:10.110Z,104
2023-04-26T02:56:10.668Z,104
2023-04-26T02:57:11.048Z,104
2023-04-26T02:59:09.927Z,104
2023-04-26T03:00:11.331Z,104
2023-04-26T03:01:11.086Z,104
2023-04-26T03:02:11.418Z,104
2023-04-26T03:03:11.258Z,104
2023-04-26T03:04:11.000Z,104
2023-04-26T03:05:11.024Z,104
2023-04-26T03:06:11.285Z,104
2023-04-26T03:07:10.371Z,104
2023-04-26T03:08:10.746Z,104
2023-04-26T03:09:11.007Z,104
2023-04-26T03:14:10.376Z,104
2023-04-26T03:15:10.700Z,104
2023-04-26T03:16:11.005Z,104
2023-04-26T03:17:11.111Z,104
2023-04-26T03:18:10.821Z,104
2023-04-26T03:19:10.445Z,104
2023-04-26T03:20:09.484Z,104
2023-04-26T03:21:10.289Z,104
2023-04-26T03:24:10.614Z,104
2023-04-26T03:25:10.827Z,104
2023-04-26T03:26:09.230Z,104
2023-04-26T03:27:10.660Z,104
2023-04-26T03:28:10.919Z,104
2023-04-26T03:29:11.107Z,104
2023-04-26T03:30:10.460Z,104
2023-04-26T03:31:10.372Z,104
2023-04-26T03:32:10.833Z,104
2023-04-26T03:33:11.138Z,104
2023-04-26T03:35:10.399Z,104
2023-04-26T03:36:10.564Z,104
2023-04-26T03:37:10.992Z,104
2023-04-26T03:38:11.181Z,104
2023-04-26T03:39:10.530Z,104
2023-04-26T03:40:10.923Z,104
2023-04-26T03:41:10.636Z,104
2023-04-26T03:42:10.927Z,104
2023-04-26T03:43:11.163Z,104
2023-04-26T03:44:10.653Z,104
2023-04-26T03:45:10.785Z,104
2023-04-26T03:46:11.271Z,104
2023-04-26T03:48:10.601Z,104
2023-04-26T03:50:11.094Z,104
2023-04-26T03:51:10.878Z,104
2023-04-26T03:52:11.041Z,104
2023-04-26T03:53:10.377Z,104
2023-04-26T03:54:10.607Z,104
2023-04-26T03:55:10.972Z,104
2023-04-26T03:56:11.176Z,104
2023-04-26T03:57:10.409Z,104
2023-04-26T03:58:10.583Z,104
2023-04-26T03:59:10.703Z,104
2023-04-26T04:00:11.262Z,104
2023-04-26T04:01:10.607Z,104
2023-04-26T04:02:10.917Z,104
2023-04-26T04:03:12.376Z,104
2023-04-26T04:06:11.092Z,104
2023-04-26T04:08:10.178Z,104
2023-04-26T04:09:10.510Z,104
2023-04-26T04:10:10.657Z,104
2023-04-26T04:11:11.171Z,104
2023-04-26T04:17:10.382Z,104
2023-04-26T04:18:10.837Z,104
2023-04-26T04:19:10.878Z,104
2023-04-26T04:20:10.973Z,104
2023-04-26T04:23:10.229Z,104
2023-04-26T04:24:10.732Z,104
2023-04-26T04:25:11.035Z,104
2023-04-26T04:26:10.949Z,104
2023-04-26T04:27:11.362Z,104
2023-04-26T04:28:10.457Z,104
2023-04-26T04:29:11.040Z,104
2023-04-26T04:30:11.071Z,104
2023-04-26T04:31:11.563Z,104
2023-04-26T04:32:10.128Z,104
2023-04-26T04:33:10.985Z,104
2023-04-26T04:35:10.276Z,104
2023-04-26T04:36:10.184Z,104
2023-04-26T04:37:10.854Z,104
2023-04-26T04:40:13.641Z,104
2023-04-26T04:42:11.170Z,104
2023-04-26T04:43:10.328Z,104
2023-04-26T04:44:10.687Z,104
2023-04-26T04:45:11.040Z,104
2023-04-26T04:46:14.191Z,104
2023-04-26T04:47:10.465Z,104
2023-04-26T04:48:10.979Z,104
2023-04-26T04:49:10.731Z,104
2023-04-26T04:50:10.379Z,104
2023-04-26T04:51:10.947Z,104
2023-04-26T04:52:11.367Z,104
2023-04-26T04:53:10.637Z,104
2023-04-26T04:54:10.684Z,104
2023-04-26T04:55:11.063Z,104
2023-04-26T04:56:10.297Z,104
2023-04-26T04:57:10.621Z,104
2023-04-26T04:58:10.944Z,104
2023-04-26T04:59:11.183Z,104
2023-04-26T05:00:10.810Z,104
2023-04-26T05:01:10.366Z,104
2023-04-26T05:02:10.856Z,104
2023-04-26T05:03:11.583Z,104
2023-04-26T05:04:12.350Z,104
2023-04-26T05:05:10.904Z,104
2023-04-26T05:08:10.229Z,102
2023-04-26T05:09:10.558Z,102
2023-04-26T05:10:11.059Z,102
2023-04-26T05:11:11.244Z,102
2023-04-26T05:12:10.499Z,102
2023-04-26T05:13:10.338Z,102
2023-04-26T05:14:10.824Z,102
2023-04-26T05:15:11.167Z,102
2023-04-26T05:16:11.080Z,102
2023-04-26T05:17:10.217Z,102
2023-04-26T05:18:10.759Z,102
2023-04-26T05:19:14.044Z,102
2023-04-26T05:22:10.370Z,102
2023-04-26T05:23:10.839Z,102
2023-04-26T05:24:10.948Z,102
2023-04-26T05:25:10.328Z,102
2023-04-26T05:26:10.713Z,102
2023-04-26T05:30:11.095Z,102
2023-04-26T05:31:13.883Z,102
2023-04-26T05:32:11.554Z,102
2023-04-26T05:34:10.917Z,102
2023-04-26T05:35:10.919Z,102
2023-04-26T05:36:11.182Z,102
2023-04-26T05:37:10.234Z,102
2023-04-26T05:38:10.584Z,102
2023-04-26T05:39:10.857Z,102
2023-04-26T05:40:11.163Z,102
2023-04-26T05:45:10.497Z,102
2023-04-26T05:46:10.909Z,102
2023-04-26T05:47:11.010Z,102
2023-04-26T05:50:10.988Z,102
2023-04-26T05:51:11.201Z,102
2023-04-26T05:52:10.320Z,102
2023-04-26T05:53:10.581Z,102
2023-04-26T05:54:10.673Z,102
2023-04-26T05:55:10.951Z,102
2023-04-26T05:56:11.117Z,102
2023-04-26T05:57:10.511Z,102
2023-04-26T05:58:10.486Z,102
2023-04-26T05:59:10.918Z,102
2023-04-26T06:00:10.927Z,102
2023-04-26T06:01:10.385Z,102
2023-04-26T06:02:10.719Z,102
2023-04-26T06:03:11.587Z,102
2023-04-26T06:04:13.585Z,102
2023-04-26T06:05:10.949Z,102
2023-04-26T06:07:10.132Z,104
2023-04-26T06:08:10.510Z,104
2023-04-26T06:09:10.549Z,104
2023-04-26T06:10:10.977Z,104
2023-04-26T06:11:11.180Z,104
2023-04-26T06:12:10.419Z,104
2023-04-26T06:13:10.543Z,104
2023-04-26T06:14:31.098Z,104
2023-04-26T06:16:10.701Z,104
2023-04-26T06:17:11.267Z,104
2023-04-26T06:18:11.623Z,104
2023-04-26T06:19:10.520Z,104
2023-04-26T06:20:10.782Z,104
2023-04-26T06:21:10.926Z,104
2023-04-26T06:22:11.090Z,104
2023-04-26T06:23:10.505Z,104
2023-04-26T06:24:10.788Z,104
2023-04-26T06:25:11.280Z,104
2023-04-26T06:26:11.010Z,104
2023-04-26T06:27:10.287Z,104
2023-04-26T06:28:10.550Z,104
2023-04-26T06:29:10.659Z,104
2023-04-26T06:30:10.149Z,104
2023-04-26T06:31:10.802Z,104
2023-04-26T06:32:10.827Z,104
2023-04-26T06:35:11.201Z,104
2023-04-26T06:37:10.730Z,104
2023-04-26T06:38:10.863Z,104
2023-04-26T06:39:10.450Z,104
2023-04-26T06:40:10.924Z,104
2023-04-26T06:41:11.050Z,104
2023-04-26T06:42:11.246Z,104
2023-04-26T06:43:10.334Z,104
2023-04-26T06:44:10.335Z,104
2023-04-26T06:45:10.907Z,104
2023-04-26T06:46:11.492Z,104
2023-04-26T06:47:10.494Z,104
2023-04-26T06:48:11.037Z,104
2023-04-26T06:50:10.521Z,104
2023-04-26T06:51:10.724Z,104
2023-04-26T06:52:11.499Z,104
2023-04-26T06:55:10.499Z,104
2023-04-26T06:56:10.756Z,104
2023-04-26T06:57:11.034Z,104
2023-04-26T06:58:11.246Z,104
2023-04-26T06:59:10.629Z,104
2023-04-26T07:00:10.834Z,104
2023-04-26T07:01:10.665Z,104
2023-04-26T07:02:11.596Z,104
2023-04-26T07:03:11.524Z,104
2023-04-26T07:04:10.897Z,104
2023-04-26T07:05:11.461Z,104
2023-04-26T07:07:13.824Z,101
2023-04-26T07:08:10.355Z,101
2023-04-26T07:09:10.757Z,101
2023-04-26T07:10:11.165Z,101
2023-04-26T07:11:10.731Z,101
2023-04-26T07:12:11.293Z,101
2023-04-26T07:13:12.299Z,101
2023-04-26T07:14:10.375Z,101
2023-04-26T07:15:10.797Z,101
2023-04-26T07:16:11.204Z,101
2023-04-26T07:19:11.088Z,101
2023-04-26T07:20:11.249Z,101
2023-04-26T07:21:10.574Z,101
2023-04-26T07:22:10.764Z,101
2023-04-26T07:23:11.022Z,101
2023-04-26T07:24:10.272Z,101
2023-04-26T07:25:10.654Z,101
2023-04-26T07:26:10.942Z,101
2023-04-26T07:27:11.173Z,101
2023-04-26T07:31:14.991Z,101
2023-04-26T07:33:10.656Z,101
2023-04-26T07:34:10.689Z,101
2023-04-26T07:35:11.008Z,101
2023-04-26T07:36:10.866Z,101
2023-04-26T07:37:11.156Z,101
2023-04-26T07:38:10.669Z,101
2023-04-26T07:39:10.765Z,101
2023-04-26T07:40:11.068Z,101
2023-04-26T07:41:10.281Z,101
2023-04-26T07:42:10.552Z,101
2023-04-26T07:43:10.999Z,101
2023-04-26T07:44:11.130Z,101
2023-04-26T07:45:10.321Z,101
2023-04-26T07:46:11.188Z,101
2023-04-26T07:47:10.825Z,101
2023-04-26T07:48:11.278Z,101
2023-04-26T07:50:10.304Z,101
2023-04-26T07:51:10.570Z,101
2023-04-26T07:52:11.070Z,101
2023-04-26T07:53:10.676Z,101
2023-04-26T07:54:11.133Z,101
2023-04-26T07:55:10.532Z,101
2023-04-26T07:56:10.410Z,101
2023-04-26T07:57:10.736Z,101
2023-04-26T07:58:11.056Z,101
2023-04-26T07:59:10.401Z,101
2023-04-26T08:00:10.816Z,101
2023-04-26T08:01:10.790Z,101
2023-04-26T08:02:11.093Z,101
2023-04-26T08:03:11.115Z,101
2023-04-26T08:04:12.268Z,101
2023-04-26T08:06:11.365Z,101
2023-04-26T08:11:10.551Z,100
2023-04-26T08:12:10.834Z,100
2023-04-26T08:13:10.965Z,100
2023-04-26T08:14:09.514Z,100
2023-04-26T08:15:10.979Z,100
2023-04-26T08:16:10.881Z,100
2023-04-26T08:17:10.164Z,100
2023-04-26T08:18:10.678Z,100
2023-04-26T08:19:10.773Z,100
2023-04-26T08:20:11.114Z,100
2023-04-26T08:21:11.179Z,100
2023-04-26T08:22:10.363Z,100
2023-04-26T08:23:10.740Z,100
2023-04-26T08:24:10.907Z,100
2023-04-26T08:25:11.239Z,100
2023-04-26T08:26:10.856Z,100
2023-04-26T08:27:11.151Z,100
2023-04-26T08:28:11.004Z,100
2023-04-26T08:29:10.126Z,100
2023-04-26T08:30:10.891Z,100
2023-04-26T08:31:11.338Z,100
2023-04-26T08:34:10.663Z,100
2023-04-26T08:35:11.038Z,100
2023-04-26T08:36:10.310Z,100
2023-04-26T08:37:10.680Z,100
2023-04-26T08:38:10.892Z,100
2023-04-26T08:39:11.037Z,100
2023-04-26T08:40:11.370Z,100
2023-04-26T08:41:10.570Z,100
2023-04-26T08:42:10.718Z,100
2023-04-26T08:43:11.145Z,100
2023-04-26T08:44:10.261Z,100
2023-04-26T08:45:10.635Z,100
2023-04-26T08:46:11.044Z,100
2023-04-26T08:47:11.062Z,100
2023-04-26T08:48:13.101Z,100
2023-04-26T08:49:10.749Z,100
2023-04-26T08:50:11.249Z,100
2023-04-26T08:53:10.931Z,100
2023-04-26T08:54:13.330Z,100
2023-04-26T08:55:11.173Z,100
2023-04-26T08:59:10.489Z,100
2023-04-26T09:00:10.605Z,100
2023-04-26T09:01:10.964Z,100
2023-04-26T09:02:11.883Z,100
2023-04-26T09:03:10.641Z,100
2023-04-26T09:04:11.602Z,100
2023-04-26T09:05:11.030Z,100
2023-04-26T09:06:10.672Z,100
2023-04-26T09:07:10.781Z,101
2023-04-26T09:08:11.019Z,101
2023-04-26T09:09:11.178Z,101
2023-04-26T09:13:10.309Z,101
2023-04-26T09:14:10.708Z,101
2023-04-26T09:16:13.948Z,101
2023-04-26T09:17:10.222Z,101
2023-04-26T09:18:10.758Z,101
2023-04-26T09:19:10.902Z,101
2023-04-26T09:20:14.177Z,101
2023-04-26T09:21:10.722Z,101
2023-04-26T09:22:10.941Z,101
2023-04-26T09:23:11.251Z,101
2023-04-26T09:26:10.236Z,101
2023-04-26T09:27:10.559Z,101
2023-04-26T09:28:10.730Z,101
2023-04-26T09:29:11.093Z,101
2023-04-26T09:30:10.456Z,101
2023-04-26T09:31:11.141Z,101
2023-04-26T09:32:11.319Z,101
2023-04-26T09:33:10.679Z,101
2023-04-26T09:36:10.768Z,101
2023-04-26T09:37:11.290Z,101
2023-04-26T09:38:19.001Z,101
2023-04-26T09:40:10.904Z,101
2023-04-26T09:41:11.042Z,101
2023-04-26T09:42:10.850Z,101
2023-04-26T09:43:10.337Z,101
2023-04-26T09:44:10.637Z,101
2023-04-26T09:45:10.964Z,101
2023-04-26T09:46:10.470Z,101
2023-04-26T09:47:11.371Z,101
2023-04-26T09:48:11.320Z,101
2023-04-26T09:49:10.378Z,101
2023-04-26T09:50:10.789Z,101
2023-04-26T09:51:10.822Z,101
2023-04-26T09:52:11.196Z,101
2023-04-26T09:53:10.237Z,101
2023-04-26T09:54:10.536Z,101
2023-04-26T09:55:16.503Z,101
2023-04-26T09:56:10.809Z,101
2023-04-26T09:57:09.536Z,101
2023-04-26T09:58:10.560Z,101
2023-04-26T09:59:10.858Z,101
2023-04-26T10:00:10.416Z,101
2023-04-26T10:01:10.829Z,101
2023-04-26T10:04:10.819Z,101
2023-04-26T10:05:11.291Z,101
2023-04-26T10:06:10.882Z,101
2023-04-26T10:07:10.481Z,98
2023-04-26T10:08:10.731Z,98
2023-04-26T10:09:10.823Z,98
2023-04-26T10:10:11.163Z,98
2023-04-26T10:11:11.053Z,98
2023-04-26T10:12:10.365Z,98
2023-04-26T10:13:10.812Z,98
2023-04-26T10:14:11.173Z,98
2023-04-26T10:19:10.332Z,98
2023-04-26T10:20:10.865Z,98
2023-04-26T10:21:10.656Z,98
2023-04-26T10:22:10.923Z,98
2023-04-26T10:23:10.354Z,98
2023-04-26T10:24:10.603Z,98
2023-04-26T10:25:11.082Z,98
2023-04-26T10:26:10.997Z,98
2023-04-26T10:27:11.172Z,98
2023-04-26T10:28:10.381Z,98
2023-04-26T10:29:12.546Z,98
2023-04-26T10:30:10.732Z,98
2023-04-26T10:31:10.976Z,98
2023-04-26T10:32:11.705Z,98
2023-04-26T10:36:10.725Z,98
2023-04-26T10:37:10.893Z,98
2023-04-26T10:38:11.208Z,98
2023-04-26T10:39:10.224Z,98
2023-04-26T10:40:10.435Z,98
2023-04-26T10:41:10.528Z,98
2023-04-26T10:42:10.824Z,98
2023-04-26T10:43:11.078Z,98
2023-04-26T10:44:10.326Z,98
2023-04-26T10:45:10.763Z,98
2023-04-26T10:46:11.042Z,98
2023-04-26T10:47:10.883Z,98
2023-04-26T10:48:11.433Z,98
2023-04-26T10:50:13.942Z,98
2023-04-26T10:51:10.978Z,98
2023-04-26T10:52:10.058Z,98
2023-04-26T10:53:10.745Z,98
2023-04-26T10:54:10.853Z,98
2023-04-26T10:55:11.092Z,98
2023-04-26T10:56:11.147Z,98
2023-04-26T10:59:56.394Z,98
2023-04-26T11:01:11.744Z,98
2023-04-26T11:02:10.451Z,98
2023-04-26T11:03:11.204Z,98
2023-04-26T11:04:11.674Z,98
2023-04-26T11:07:11.072Z,102
2023-04-26T11:08:10.214Z,102
2023-04-26T11:09:10.430Z,102
2023-04-26T11:10:10.893Z,102
2023-04-26T11:11:10.819Z,102
2023-04-26T11:12:11.120Z,102
2023-04-26T11:13:11.155Z,102
2023-04-26T11:14:10.434Z,102
2023-04-26T11:15:10.759Z,102
2023-04-26T11:16:10.825Z,102
2023-04-26T11:19:10.373Z,102
2023-04-26T11:20:10.882Z,102
2023-04-26T11:21:10.987Z,102
2023-04-26T11:22:11.249Z,102
2023-04-26T11:23:11.349Z,102
2023-04-26T11:24:11.204Z,102
2023-04-26T11:25:10.324Z,102
2023-04-26T11:26:10.946Z,102
2023-04-26T11:27:10.578Z,102
2023-04-26T11:28:11.181Z,102
2023-04-26T11:30:10.456Z,102
2023-04-26T11:31:11.192Z,102
2023-04-26T11:32:10.947Z,102
2023-04-26T11:33:11.633Z,102
2023-04-26T11:34:10.561Z,102
2023-04-26T11:35:10.743Z,102
2023-04-26T11:36:10.951Z,102
2023-04-26T11:37:10.215Z,102
2023-04-26T11:38:10.376Z,102
2023-04-26T11:39:11.265Z,102
2023-04-26T11:40:10.984Z,102
2023-04-26T11:44:10.941Z,102
2023-04-26T11:45:10.543Z,102
2023-04-26T11:46:10.582Z,102
2023-04-26T11:47:11.216Z,102
2023-04-26T11:48:10.973Z,102
2023-04-26T11:52:10.038Z,102
2023-04-26T11:53:10.301Z,102
2023-04-26T11:54:10.766Z,102
2023-04-26T11:55:11.152Z,102
2023-04-26T11:56:11.270Z,102
2023-04-26T11:57:10.624Z,102
2023-04-26T11:58:10.851Z,102
2023-04-26T11:59:11.070Z,102
2023-04-26T12:00:11.434Z,102
2023-04-26T12:01:10.997Z,102
2023-04-26T12:02:11.502Z,102
2023-04-26T12:03:11.576Z,102
2023-04-26T12:04:11.711Z,102
2023-04-26T12:05:12.083Z,102
2023-04-26T12:06:10.373Z,102
2023-04-26T12:07:10.476Z,100
2023-04-26T12:08:10.794Z,100
2023-04-26T12:09:10.839Z,100
2023-04-26T12:10:10.232Z,100
2023-04-26T12:11:10.777Z,100
2023-04-26T12:12:10.756Z,100
2023-04-26T12:13:11.381Z,100
2023-04-26T12:14:10.521Z,100
2023-04-26T12:15:12.201Z,100
2023-04-26T12:16:29.766Z,100
2023-04-26T12:17:10.341Z,100
2023-04-26T12:18:11.521Z,100
2023-04-26T12:21:10.666Z,100
2023-04-26T12:22:10.906Z,100
2023-04-26T12:23:11.080Z,100
2023-04-26T12:24:10.285Z,100
2023-04-26T12:25:10.794Z,100
2023-04-26T12:26:11.192Z,100
2023-04-26T12:27:11.066Z,100
2023-04-26T12:28:10.697Z,100
2023-04-26T12:29:10.676Z,100
2023-04-26T12:30:11.156Z,100
2023-04-26T12:31:11.163Z,100
2023-04-26T12:32:10.662Z,100
2023-04-26T12:33:25.613Z,100
2023-04-26T12:35:11.072Z,100
2023-04-26T12:36:10.295Z,100
2023-04-26T12:37:10.732Z,100
2023-04-26T12:38:10.995Z,100
2023-04-26T12:39:11.082Z,100
2023-04-26T12:40:11.551Z,100
2023-04-26T12:41:10.280Z,100
2023-04-26T12:42:10.686Z,100
2023-04-26T12:43:10.795Z,100
2023-04-26T12:44:11.016Z,100
2023-04-26T12:45:10.488Z,100
2023-04-26T12:46:10.846Z,100
2023-04-26T12:47:10.850Z,100
2023-04-26T12:48:10.685Z,100
2023-04-26T12:49:10.373Z,100
2023-04-26T12:50:10.809Z,100
2023-04-26T12:51:11.165Z,100
2023-04-26T12:56:10.289Z,100
2023-04-26T12:57:10.471Z,100
2023-04-26T12:58:11.095Z,100
2023-04-26T12:59:10.340Z,100
2023-04-26T13:00:10.301Z,100
2023-04-26T13:01:10.844Z,100
2023-04-26T13:02:11.217Z,100
2023-04-26T13:03:10.882Z,100
2023-04-26T13:04:11.376Z,100
2023-04-26T13:05:11.472Z,100
2023-04-26T13:06:10.919Z,100
2023-04-26T13:09:10.685Z,101
2023-04-26T13:10:12.816Z,101
2023-04-26T13:12:10.662Z,101
2023-04-26T13:13:10.856Z,101
2023-04-26T13:14:11.244Z,101
2023-04-26T13:15:10.764Z,101
2023-04-26T13:16:11.111Z,101
2023-04-26T13:17:11.268Z,101
2023-04-26T13:18:10.816Z,101
2023-04-26T13:19:10.900Z,101
2023-04-26T13:20:11.160Z,101
2023-04-26T13:21:11.041Z,101
2023-04-26T13:22:11.087Z,101
2023-04-26T13:23:10.290Z,101
2023-04-26T13:24:10.748Z,101
2023-04-26T13:25:10.821Z,101
2023-04-26T13:26:11.132Z,101
2023-04-26T13:27:10.562Z,101
2023-04-26T13:28:10.940Z,101
2023-04-26T13:29:11.252Z,101
2023-04-26T13:32:10.963Z,101
2023-04-26T13:34:10.897Z,101
2023-04-26T13:35:11.173Z,101
2023-04-26T13:36:10.927Z,101
2023-04-26T13:37:11.345Z,101
2023-04-26T13:38:10.328Z,101
2023-04-26T13:39:10.617Z,101
2023-04-26T13:40:10.459Z,101
2023-04-26T13:41:10.525Z,101
2023-04-26T13:42:10.913Z,101
2023-04-26T13:43:11.049Z,101
2023-04-26T13:44:11.298Z,101
2023-04-26T13:45:12.440Z,101
2023-04-26T13:46:10.740Z,101
2023-04-26T13:47:10.848Z,101
2023-04-26T13:48:11.509Z,101
2023-04-26T13:51:13.657Z,101
2023-04-26T13:52:10.318Z,101
2023-04-26T13:53:10.678Z,101
2023-04-26T13:54:10.998Z,101
2023-04-26T13:55:10.314Z,101
2023-04-26T13:56:11.897Z,101
2023-04-26T13:58:10.516Z,101
2023-04-26T13:59:10.653Z,101
2023-04-26T14:00:10.920Z,101
2023-04-26T14:01:11.504Z,101
2023-04-26T14:02:10.705Z,101
2023-04-26T14:03:11.960Z,101
2023-04-26T14:04:13.701Z,101
2023-04-26T14:05:10.601Z,101
2023-04-26T14:06:10.697Z,101
2023-04-26T14:07:10.923Z,102
2023-04-26T14:08:10.387Z,102
2023-04-26T14:09:10.653Z,102
2023-04-26T14:10:11.167Z,102
2023-04-26T14:11:10.577Z,102
2023-04-26T14:12:15.730Z,102
2023-04-26T14:13:10.325Z,102
2023-04-26T14:14:10.771Z,102
2023-04-26T14:15:11.208Z,102
2023-04-26T14:17:10.864Z,102
2023-04-26T14:20:10.857Z,102
2023-04-26T14:21:10.968Z,102
2023-04-26T14:22:11.211Z,102
2023-04-26T14:23:10.070Z,102
2023-04-26T14:24:10.522Z,102
2023-04-26T14:25:10.884Z,102
2023-04-26T14:26:11.242Z,102
2023-04-26T14:27:10.322Z,102
2023-04-26T14:28:10.672Z,102
2023-04-26T14:29:11.088Z,102
2023-04-26T14:30:10.413Z,102
2023-04-26T14:31:10.349Z,102
2023-04-26T14:32:11.145Z,102
2023-04-26T14:33:11.074Z,102
2023-04-26T14:34:11.092Z,102
2023-04-26T14:35:10.286Z,102
2023-04-26T14:36:10.572Z,102
2023-04-26T14:37:10.848Z,102
2023-04-26T14:38:11.085Z,102
2023-04-26T14:39:10.368Z,102
2023-04-26T14:40:10.846Z,102
2023-04-26T14:41:10.164Z,102
2023-04-26T14:42:10.643Z,102
2023-04-26T14:43:10.974Z,102
2023-04-26T14:45:10.409Z,102
2023-04-26T14:46:10.619Z,102
2023-04-26T14:47:10.578Z,102
2023-04-26T14:48:10.206Z,102
2023-04-26T14:49:10.374Z,102
2023-04-26T14:50:11.009Z,102
2023-04-26T14:51:10.310Z,102
2023-04-26T14:52:10.521Z,102
2023-04-26T14:53:10.694Z,102
2023-04-26T14:54:10.961Z,102
2023-04-26T14:55:09.987Z,102
2023-04-26T14:56:11.156Z,102
2023-04-26T14:57:10.522Z,102
2023-04-26T14:58:10.566Z,102
2023-04-26T14:59:10.732Z,102
2023-04-26T15:00:10.907Z,102
2023-04-26T15:01:11.631Z,102
2023-04-26T15:02:10.539Z,102
2023-04-26T15:03:11.692Z,102
2023-04-26T15:04:12.551Z,102
2023-04-26T15:05:11.567Z,102
2023-04-26T15:06:10.916Z,102
2023-04-26T15:07:17.958Z,99
2023-04-26T15:08:11.248Z,99
2023-04-26T15:09:11.150Z,99
2023-04-26T15:10:10.589Z,99
2023-04-26T15:11:10.812Z,99
2023-04-26T15:12:10.922Z,99
2023-04-26T15:13:10.369Z,99
2023-04-26T15:14:10.827Z,99
2023-04-26T15:16:12.269Z,99
2023-04-26T15:17:10.846Z,99
2023-04-26T15:18:11.190Z,99
2023-04-26T15:19:11.304Z,99
2023-04-26T15:22:10.332Z,99
2023-04-26T15:23:10.702Z,99
2023-04-26T15:24:10.928Z,99
2023-04-26T15:25:11.223Z,99
2023-04-26T15:26:11.108Z,99
2023-04-26T15:27:11.388Z,99
2023-04-26T15:28:10.578Z,99
2023-04-26T15:29:10.863Z,99
2023-04-26T15:30:11.268Z,99
2023-04-26T15:31:10.776Z,99
2023-04-26T15:32:10.859Z,99
2023-04-26T15:33:11.313Z,99
2023-04-26T15:34:09.909Z,99
2023-04-26T15:35:10.636Z,99
2023-04-26T15:36:10.214Z,99
2023-04-26T15:37:10.725Z,99
2023-04-26T15:38:10.811Z,99
2023-04-26T15:43:10.250Z,99
2023-04-26T15:44:10.690Z,99
2023-04-26T15:45:10.665Z,99
2023-04-26T15:46:11.206Z,99
2023-04-26T15:47:10.236Z,99
2023-04-26T15:48:10.595Z,99
2023-04-26T15:49:10.870Z,99
2023-04-26T15:52:10.316Z,99
2023-04-26T15:53:10.515Z,99
2023-04-26T15:54:10.679Z,99
2023-04-26T15:55:11.019Z,99
2023-04-26T15:56:11.239Z,99
2023-04-26T15:57:10.431Z,99
2023-04-26T15:58:10.764Z,99
2023-04-26T15:59:10.884Z,99
2023-04-26T16:00:11.237Z,99
2023-04-26T16:01:10.443Z,99
2023-04-26T16:02:10.635Z,99
2023-04-26T16:03:11.500Z,99
2023-04-26T16:04:11.738Z,99
2023-04-26T16:05:11.017Z,99
2023-04-26T16:06:09.507Z,99
2023-04-26T16:07:10.683Z,101
2023-04-26T16:08:10.887Z,101
2023-04-26T16:09:30.447Z,101
2023-04-26T16:11:10.723Z,101
2023-04-26T16:12:10.909Z,101
2023-04-26T16:13:11.360Z,101
2023-04-26T16:14:10.417Z,101
2023-04-26T16:15:10.745Z,101
2023-04-26T16:16:11.045Z,101
2023-04-26T16:19:10.477Z,101
2023-04-26T16:20:10.674Z,101
2023-04-26T16:21:11.096Z,101
2023-04-26T16:22:10.909Z,101
2023-04-26T16:23:10.528Z,101
2023-04-26T16:24:10.603Z,101
2023-04-26T16:25:11.005Z,101
2023-04-26T16:26:11.220Z,101
2023-04-26T16:27:10.198Z,101
2023-04-26T16:28:11.889Z,101
2023-04-26T16:31:11.414Z,101
2023-04-26T16:32:10.337Z,101
2023-04-26T16:33:10.757Z,101
2023-04-26T16:34:11.085Z,101
2023-04-26T16:38:10.742Z,101
2023-04-26T16:39:11.294Z,101